sensor_id;sensor_type;location;lat;lon;timestamp;temperature;humidity
20288;DHT22;10303;51.960;8.372;2023-07-20T00:00:18;20.60;99.90
20288;DHT22;10303;51.960;8.372;2023-07-20T00:02:44;20.60;99.90
20288;DHT22;10303;51.960;8.372;2023-07-20T00:05:10;20.60;99.90
20288;DHT22;10303;51.960;8.372;2023-07-20T00:07:36;20.60;99.90
20288;DHT22;10303;51.960;8.372;2023-07-20T00:10:02;20.60;99.90
20288;DHT22;10303;51.960;8.372;2023-07-20T00:12:36;20.60;99.90
20288;DHT22;10303;51.960;8.372;2023-07-20T00:15:03;20.60;99.90
20288;DHT22;10303;51.960;8.372;2023-07-20T00:17:30;20.60;99.90
20288;DHT22;10303;51.960;8.372;2023-07-20T00:19:56;20.50;99.90
20288;DHT22;10303;51.960;8.372;2023-07-20T00:22:22;20.50;99.90
20288;DHT22;10303;51.960;8.372;2023-07-20T00:24:48;20.50;99.90
20288;DHT22;10303;51.960;8.372;2023-07-20T00:27:15;20.50;99.90
20288;DHT22;10303;51.960;8.372;2023-07-20T00:29:41;20.50;99.90
20288;DHT22;10303;51.960;8.372;2023-07-20T00:32:08;20.50;99.90
20288;DHT22;10303;51.960;8.372;2023-07-20T00:34:35;20.50;99.90
20288;DHT22;10303;51.960;8.372;2023-07-20T00:37:01;20.50;99.90
20288;DHT22;10303;51.960;8.372;2023-07-20T00:39:27;20.40;99.90
20288;DHT22;10303;51.960;8.372;2023-07-20T00:41:54;20.40;99.90
20288;DHT22;10303;51.960;8.372;2023-07-20T00:44:24;20.40;99.90
20288;DHT22;10303;51.960;8.372;2023-07-20T00:46:50;20.40;99.90
20288;DHT22;10303;51.960;8.372;2023-07-20T00:49:17;20.40;99.90
20288;DHT22;10303;51.960;8.372;2023-07-20T00:51:48;20.40;99.90
20288;DHT22;10303;51.960;8.372;2023-07-20T00:54:16;20.40;99.90
20288;DHT22;10303;51.960;8.372;2023-07-20T00:56:43;20.40;99.90
20288;DHT22;10303;51.960;8.372;2023-07-20T00:59:13;20.40;99.90
20288;DHT22;10303;51.960;8.372;2023-07-20T01:01:39;20.40;99.90
20288;DHT22;10303;51.960;8.372;2023-07-20T01:04:05;20.40;99.90
20288;DHT22;10303;51.960;8.372;2023-07-20T01:06:48;20.40;99.90
20288;DHT22;10303;51.960;8.372;2023-07-20T01:09:34;20.40;99.90
20288;DHT22;10303;51.960;8.372;2023-07-20T01:12:17;20.40;99.90
20288;DHT22;10303;51.960;8.372;2023-07-20T01:14:49;20.40;99.90
20288;DHT22;10303;51.960;8.372;2023-07-20T01:17:15;20.40;99.90
20288;DHT22;10303;51.960;8.372;2023-07-20T01:19:41;20.40;99.90
20288;DHT22;10303;51.960;8.372;2023-07-20T01:28:37;20.30;99.90
20288;DHT22;10303;51.960;8.372;2023-07-20T01:33:44;20.30;99.90
20288;DHT22;10303;51.960;8.372;2023-07-20T01:36:14;20.20;99.90
20288;DHT22;10303;51.960;8.372;2023-07-20T01:38:43;20.20;99.90
20288;DHT22;10303;51.960;8.372;2023-07-20T01:41:11;20.20;99.90
20288;DHT22;10303;51.960;8.372;2023-07-20T01:43:37;20.20;99.90
20288;DHT22;10303;51.960;8.372;2023-07-20T01:46:04;20.20;99.90
20288;DHT22;10303;51.960;8.372;2023-07-20T01:48:30;20.20;99.90
20288;DHT22;10303;51.960;8.372;2023-07-20T01:50:56;20.20;99.90
20288;DHT22;10303;51.960;8.372;2023-07-20T01:53:22;20.10;99.90
20288;DHT22;10303;51.960;8.372;2023-07-20T01:55:48;20.20;99.90
20288;DHT22;10303;51.960;8.372;2023-07-20T01:58:14;20.10;99.90
20288;DHT22;10303;51.960;8.372;2023-07-20T02:00:40;20.10;99.90
20288;DHT22;10303;51.960;8.372;2023-07-20T02:03:07;20.10;99.90
20288;DHT22;10303;51.960;8.372;2023-07-20T02:05:33;20.10;99.90
20288;DHT22;10303;51.960;8.372;2023-07-20T02:07:59;20.10;99.90
20288;DHT22;10303;51.960;8.372;2023-07-20T02:10:25;20.10;99.90
20288;DHT22;10303;51.960;8.372;2023-07-20T02:12:51;20.10;99.90
20288;DHT22;10303;51.960;8.372;2023-07-20T02:15:17;20.00;99.90
20288;DHT22;10303;51.960;8.372;2023-07-20T02:17:44;20.00;99.90
20288;DHT22;10303;51.960;8.372;2023-07-20T02:20:10;20.00;99.90
20288;DHT22;10303;51.960;8.372;2023-07-20T02:22:37;20.00;99.90
20288;DHT22;10303;51.960;8.372;2023-07-20T02:25:04;20.00;99.90
20288;DHT22;10303;51.960;8.372;2023-07-20T02:27:31;20.00;99.90
20288;DHT22;10303;51.960;8.372;2023-07-20T02:29:57;19.90;99.90
20288;DHT22;10303;51.960;8.372;2023-07-20T02:32:23;19.90;99.90
20288;DHT22;10303;51.960;8.372;2023-07-20T02:34:49;20.00;99.90
20288;DHT22;10303;51.960;8.372;2023-07-20T02:37:16;20.00;99.90
20288;DHT22;10303;51.960;8.372;2023-07-20T02:39:42;19.90;99.90
20288;DHT22;10303;51.960;8.372;2023-07-20T02:42:09;19.90;99.90
20288;DHT22;10303;51.960;8.372;2023-07-20T02:44:35;19.90;99.90
20288;DHT22;10303;51.960;8.372;2023-07-20T02:47:01;19.90;99.90
20288;DHT22;10303;51.960;8.372;2023-07-20T02:49:27;19.90;99.90
20288;DHT22;10303;51.960;8.372;2023-07-20T02:51:53;19.90;99.90
20288;DHT22;10303;51.960;8.372;2023-07-20T02:54:21;19.90;99.90
20288;DHT22;10303;51.960;8.372;2023-07-20T02:56:47;19.90;99.90
20288;DHT22;10303;51.960;8.372;2023-07-20T02:59:13;19.90;99.90
20288;DHT22;10303;51.960;8.372;2023-07-20T03:01:39;19.90;99.90
20288;DHT22;10303;51.960;8.372;2023-07-20T03:04:08;19.90;99.90
20288;DHT22;10303;51.960;8.372;2023-07-20T03:06:36;19.90;99.90
20288;DHT22;10303;51.960;8.372;2023-07-20T03:09:03;19.80;99.90
20288;DHT22;10303;51.960;8.372;2023-07-20T03:11:29;19.80;99.90
20288;DHT22;10303;51.960;8.372;2023-07-20T03:13:57;19.90;99.90
20288;DHT22;10303;51.960;8.372;2023-07-20T03:16:24;19.90;99.90
20288;DHT22;10303;51.960;8.372;2023-07-20T03:18:52;19.90;99.90
20288;DHT22;10303;51.960;8.372;2023-07-20T03:21:18;19.80;99.90
20288;DHT22;10303;51.960;8.372;2023-07-20T03:23:44;19.80;99.90
20288;DHT22;10303;51.960;8.372;2023-07-20T03:26:11;19.80;99.90
20288;DHT22;10303;51.960;8.372;2023-07-20T03:28:38;19.80;99.90
20288;DHT22;10303;51.960;8.372;2023-07-20T03:31:04;19.80;99.90
20288;DHT22;10303;51.960;8.372;2023-07-20T03:33:35;19.80;99.90
20288;DHT22;10303;51.960;8.372;2023-07-20T03:36:02;19.80;99.90
20288;DHT22;10303;51.960;8.372;2023-07-20T03:38:30;19.80;99.90
20288;DHT22;10303;51.960;8.372;2023-07-20T03:41:00;19.80;99.90
20288;DHT22;10303;51.960;8.372;2023-07-20T03:43:27;19.80;99.90
20288;DHT22;10303;51.960;8.372;2023-07-20T03:45:54;19.60;99.90
20288;DHT22;10303;51.960;8.372;2023-07-20T03:48:22;19.60;99.90
20288;DHT22;10303;51.960;8.372;2023-07-20T03:50:50;19.60;99.90
20288;DHT22;10303;51.960;8.372;2023-07-20T03:53:17;19.60;99.90
20288;DHT22;10303;51.960;8.372;2023-07-20T03:55:48;19.50;99.90
20288;DHT22;10303;51.960;8.372;2023-07-20T03:58:17;19.50;99.90
20288;DHT22;10303;51.960;8.372;2023-07-20T04:00:48;19.50;99.90
20288;DHT22;10303;51.960;8.372;2023-07-20T04:03:17;19.50;99.90
20288;DHT22;10303;51.960;8.372;2023-07-20T04:05:46;19.50;99.90
20288;DHT22;10303;51.960;8.372;2023-07-20T04:08:12;19.40;99.90
20288;DHT22;10303;51.960;8.372;2023-07-20T04:10:38;19.40;99.90
20288;DHT22;10303;51.960;8.372;2023-07-20T04:13:05;19.40;99.90
20288;DHT22;10303;51.960;8.372;2023-07-20T04:15:31;19.40;99.90
20288;DHT22;10303;51.960;8.372;2023-07-20T04:17:57;19.40;99.90
20288;DHT22;10303;51.960;8.372;2023-07-20T04:20:24;19.30;99.90
20288;DHT22;10303;51.960;8.372;2023-07-20T04:22:50;19.30;99.90
20288;DHT22;10303;51.960;8.372;2023-07-20T04:25:17;19.30;99.90
20288;DHT22;10303;51.960;8.372;2023-07-20T04:27:44;19.30;99.90
20288;DHT22;10303;51.960;8.372;2023-07-20T04:30:11;19.30;99.90
20288;DHT22;10303;51.960;8.372;2023-07-20T04:32:38;19.20;99.90
20288;DHT22;10303;51.960;8.372;2023-07-20T04:35:18;19.20;99.90
20288;DHT22;10303;51.960;8.372;2023-07-20T04:38:05;19.20;99.90
20288;DHT22;10303;51.960;8.372;2023-07-20T04:40:31;19.20;99.90
20288;DHT22;10303;51.960;8.372;2023-07-20T04:42:58;19.20;99.90
20288;DHT22;10303;51.960;8.372;2023-07-20T04:45:25;19.10;99.90
20288;DHT22;10303;51.960;8.372;2023-07-20T04:47:51;19.10;99.90
20288;DHT22;10303;51.960;8.372;2023-07-20T04:50:18;19.10;99.90
20288;DHT22;10303;51.960;8.372;2023-07-20T04:52:44;19.10;99.90
20288;DHT22;10303;51.960;8.372;2023-07-20T04:55:16;19.10;99.90
20288;DHT22;10303;51.960;8.372;2023-07-20T04:57:42;19.10;99.90
20288;DHT22;10303;51.960;8.372;2023-07-20T05:00:10;19.00;99.90
20288;DHT22;10303;51.960;8.372;2023-07-20T05:02:40;19.00;99.90
20288;DHT22;10303;51.960;8.372;2023-07-20T05:05:07;18.90;99.90
20288;DHT22;10303;51.960;8.372;2023-07-20T05:07:34;18.90;99.90
20288;DHT22;10303;51.960;8.372;2023-07-20T05:10:00;18.90;99.90
20288;DHT22;10303;51.960;8.372;2023-07-20T05:12:27;18.90;99.90
20288;DHT22;10303;51.960;8.372;2023-07-20T05:14:53;18.90;99.90
20288;DHT22;10303;51.960;8.372;2023-07-20T05:17:19;18.90;99.90
20288;DHT22;10303;51.960;8.372;2023-07-20T05:19:45;18.90;99.90
20288;DHT22;10303;51.960;8.372;2023-07-20T05:22:13;18.90;99.90
20288;DHT22;10303;51.960;8.372;2023-07-20T05:24:40;18.90;99.90
20288;DHT22;10303;51.960;8.372;2023-07-20T05:27:06;18.90;99.90
20288;DHT22;10303;51.960;8.372;2023-07-20T05:29:32;18.90;99.90
20288;DHT22;10303;51.960;8.372;2023-07-20T05:31:59;18.90;99.90
20288;DHT22;10303;51.960;8.372;2023-07-20T05:34:25;18.90;99.90
20288;DHT22;10303;51.960;8.372;2023-07-20T05:36:51;18.90;99.90
20288;DHT22;10303;51.960;8.372;2023-07-20T05:39:17;18.90;99.90
20288;DHT22;10303;51.960;8.372;2023-07-20T05:41:43;18.90;99.90
20288;DHT22;10303;51.960;8.372;2023-07-20T05:44:10;18.90;99.90
20288;DHT22;10303;51.960;8.372;2023-07-20T05:46:36;19.00;99.90
20288;DHT22;10303;51.960;8.372;2023-07-20T05:49:02;19.00;99.90
20288;DHT22;10303;51.960;8.372;2023-07-20T05:51:28;19.00;99.90
20288;DHT22;10303;51.960;8.372;2023-07-20T05:53:54;19.00;99.90
20288;DHT22;10303;51.960;8.372;2023-07-20T05:56:20;19.00;99.90
20288;DHT22;10303;51.960;8.372;2023-07-20T05:58:46;19.10;99.90
20288;DHT22;10303;51.960;8.372;2023-07-20T06:01:12;19.10;99.90
20288;DHT22;10303;51.960;8.372;2023-07-20T06:03:38;19.10;99.90
20288;DHT22;10303;51.960;8.372;2023-07-20T06:06:04;19.10;99.90
20288;DHT22;10303;51.960;8.372;2023-07-20T06:08:31;19.10;99.90
20288;DHT22;10303;51.960;8.372;2023-07-20T06:10:57;19.10;99.90
20288;DHT22;10303;51.960;8.372;2023-07-20T06:13:23;19.10;99.90
20288;DHT22;10303;51.960;8.372;2023-07-20T06:15:50;19.20;99.90
20288;DHT22;10303;51.960;8.372;2023-07-20T06:18:16;19.20;99.90
20288;DHT22;10303;51.960;8.372;2023-07-20T06:20:42;19.20;99.90
20288;DHT22;10303;51.960;8.372;2023-07-20T06:23:09;19.20;99.90
20288;DHT22;10303;51.960;8.372;2023-07-20T06:25:35;19.20;99.90
20288;DHT22;10303;51.960;8.372;2023-07-20T06:28:01;19.20;99.90
20288;DHT22;10303;51.960;8.372;2023-07-20T06:30:27;19.20;99.90
20288;DHT22;10303;51.960;8.372;2023-07-20T06:32:52;19.30;99.90
20288;DHT22;10303;51.960;8.372;2023-07-20T06:35:18;19.30;99.90
20288;DHT22;10303;51.960;8.372;2023-07-20T06:37:44;19.30;99.90
20288;DHT22;10303;51.960;8.372;2023-07-20T06:40:11;19.30;99.90
20288;DHT22;10303;51.960;8.372;2023-07-20T06:42:37;19.40;99.90
20288;DHT22;10303;51.960;8.372;2023-07-20T06:45:04;19.40;99.90
20288;DHT22;10303;51.960;8.372;2023-07-20T06:47:30;19.40;99.90
20288;DHT22;10303;51.960;8.372;2023-07-20T06:49:56;19.50;99.90
20288;DHT22;10303;51.960;8.372;2023-07-20T06:52:22;19.50;99.90
20288;DHT22;10303;51.960;8.372;2023-07-20T06:54:48;19.50;99.90
20288;DHT22;10303;51.960;8.372;2023-07-20T06:57:14;19.50;99.90
20288;DHT22;10303;51.960;8.372;2023-07-20T06:59:40;19.60;99.90
20288;DHT22;10303;51.960;8.372;2023-07-20T07:02:06;19.60;99.90
20288;DHT22;10303;51.960;8.372;2023-07-20T07:04:32;19.60;99.90
20288;DHT22;10303;51.960;8.372;2023-07-20T07:06:59;19.60;99.90
20288;DHT22;10303;51.960;8.372;2023-07-20T07:09:25;19.60;99.90
20288;DHT22;10303;51.960;8.372;2023-07-20T07:11:52;19.60;99.90
20288;DHT22;10303;51.960;8.372;2023-07-20T07:14:20;19.70;99.90
20288;DHT22;10303;51.960;8.372;2023-07-20T07:16:47;19.70;99.90
20288;DHT22;10303;51.960;8.372;2023-07-20T07:19:14;19.70;99.90
20288;DHT22;10303;51.960;8.372;2023-07-20T07:21:40;19.80;99.90
20288;DHT22;10303;51.960;8.372;2023-07-20T07:24:06;19.80;99.90
20288;DHT22;10303;51.960;8.372;2023-07-20T07:26:33;19.90;99.90
20288;DHT22;10303;51.960;8.372;2023-07-20T07:28:59;19.90;99.90
20288;DHT22;10303;51.960;8.372;2023-07-20T07:31:25;20.00;99.90
20288;DHT22;10303;51.960;8.372;2023-07-20T07:33:51;20.00;99.90
20288;DHT22;10303;51.960;8.372;2023-07-20T07:36:17;20.10;99.90
20288;DHT22;10303;51.960;8.372;2023-07-20T07:38:43;20.10;99.90
20288;DHT22;10303;51.960;8.372;2023-07-20T07:41:09;20.10;99.90
20288;DHT22;10303;51.960;8.372;2023-07-20T07:43:35;20.20;99.90
20288;DHT22;10303;51.960;8.372;2023-07-20T07:46:01;20.30;99.90
20288;DHT22;10303;51.960;8.372;2023-07-20T07:48:27;20.30;99.90
20288;DHT22;10303;51.960;8.372;2023-07-20T07:50:54;20.40;99.90
20288;DHT22;10303;51.960;8.372;2023-07-20T07:53:20;20.40;99.90
20288;DHT22;10303;51.960;8.372;2023-07-20T07:55:49;20.50;99.90
20288;DHT22;10303;51.960;8.372;2023-07-20T07:58:16;20.50;99.90
20288;DHT22;10303;51.960;8.372;2023-07-20T08:00:42;20.60;99.90
20288;DHT22;10303;51.960;8.372;2023-07-20T08:03:10;20.60;99.90
20288;DHT22;10303;51.960;8.372;2023-07-20T08:05:36;20.70;99.90
20288;DHT22;10303;51.960;8.372;2023-07-20T08:08:03;20.80;99.90
20288;DHT22;10303;51.960;8.372;2023-07-20T08:10:32;20.90;99.90
20288;DHT22;10303;51.960;8.372;2023-07-20T08:12:58;21.00;99.90
20288;DHT22;10303;51.960;8.372;2023-07-20T08:15:24;21.10;99.90
20288;DHT22;10303;51.960;8.372;2023-07-20T08:17:51;21.20;99.90
20288;DHT22;10303;51.960;8.372;2023-07-20T08:20:18;21.20;99.90
20288;DHT22;10303;51.960;8.372;2023-07-20T08:22:44;21.30;99.90
20288;DHT22;10303;51.960;8.372;2023-07-20T08:25:10;21.30;99.90
20288;DHT22;10303;51.960;8.372;2023-07-20T08:27:36;21.30;99.90
20288;DHT22;10303;51.960;8.372;2023-07-20T08:30:03;21.30;99.90
20288;DHT22;10303;51.960;8.372;2023-07-20T08:32:33;21.40;99.90
20288;DHT22;10303;51.960;8.372;2023-07-20T08:34:59;21.40;99.90
20288;DHT22;10303;51.960;8.372;2023-07-20T08:37:25;21.40;99.90
20288;DHT22;10303;51.960;8.372;2023-07-20T08:39:51;21.50;99.90
20288;DHT22;10303;51.960;8.372;2023-07-20T08:42:17;21.60;99.90
20288;DHT22;10303;51.960;8.372;2023-07-20T08:44:45;21.70;99.90
20288;DHT22;10303;51.960;8.372;2023-07-20T08:47:16;21.80;99.90
20288;DHT22;10303;51.960;8.372;2023-07-20T08:49:42;21.90;99.90
20288;DHT22;10303;51.960;8.372;2023-07-20T08:52:08;22.00;99.90
20288;DHT22;10303;51.960;8.372;2023-07-20T08:54:35;22.20;99.90
20288;DHT22;10303;51.960;8.372;2023-07-20T08:57:03;22.30;99.90
20288;DHT22;10303;51.960;8.372;2023-07-20T08:59:31;22.50;99.90
20288;DHT22;10303;51.960;8.372;2023-07-20T09:02:02;22.60;99.90
20288;DHT22;10303;51.960;8.372;2023-07-20T09:04:30;22.80;99.90
20288;DHT22;10303;51.960;8.372;2023-07-20T09:06:57;22.90;99.90
20288;DHT22;10303;51.960;8.372;2023-07-20T09:09:23;23.10;99.90
20288;DHT22;10303;51.960;8.372;2023-07-20T09:11:49;23.20;99.90
20288;DHT22;10303;51.960;8.372;2023-07-20T09:14:16;23.30;99.90
20288;DHT22;10303;51.960;8.372;2023-07-20T09:16:55;23.40;99.90
20288;DHT22;10303;51.960;8.372;2023-07-20T09:19:22;23.50;99.90
20288;DHT22;10303;51.960;8.372;2023-07-20T09:21:49;23.70;99.90
20288;DHT22;10303;51.960;8.372;2023-07-20T09:24:18;23.70;99.90
20288;DHT22;10303;51.960;8.372;2023-07-20T09:26:46;23.80;99.90
20288;DHT22;10303;51.960;8.372;2023-07-20T09:29:20;23.90;99.90
20288;DHT22;10303;51.960;8.372;2023-07-20T09:32:05;24.00;99.90
20288;DHT22;10303;51.960;8.372;2023-07-20T09:34:32;24.00;99.90
20288;DHT22;10303;51.960;8.372;2023-07-20T09:36:59;24.00;99.90
20288;DHT22;10303;51.960;8.372;2023-07-20T09:39:26;24.10;99.90
20288;DHT22;10303;51.960;8.372;2023-07-20T09:41:53;24.20;99.90
20288;DHT22;10303;51.960;8.372;2023-07-20T09:44:19;24.30;99.90
20288;DHT22;10303;51.960;8.372;2023-07-20T09:46:49;24.40;99.90
20288;DHT22;10303;51.960;8.372;2023-07-20T09:49:19;24.50;99.90
20288;DHT22;10303;51.960;8.372;2023-07-20T09:51:46;24.60;99.90
20288;DHT22;10303;51.960;8.372;2023-07-20T09:54:14;24.90;99.90
20288;DHT22;10303;51.960;8.372;2023-07-20T09:56:40;25.10;99.90
20288;DHT22;10303;51.960;8.372;2023-07-20T09:59:08;25.20;99.90
20288;DHT22;10303;51.960;8.372;2023-07-20T10:01:34;25.30;99.90
20288;DHT22;10303;51.960;8.372;2023-07-20T10:04:03;25.30;98.20
20288;DHT22;10303;51.960;8.372;2023-07-20T10:06:32;25.30;98.40
20288;DHT22;10303;51.960;8.372;2023-07-20T10:09:03;25.40;98.10
20288;DHT22;10303;51.960;8.372;2023-07-20T10:11:35;25.40;97.70
20288;DHT22;10303;51.960;8.372;2023-07-20T10:14:05;25.50;98.30
20288;DHT22;10303;51.960;8.372;2023-07-20T10:16:41;25.60;99.40
20288;DHT22;10303;51.960;8.372;2023-07-20T10:19:22;25.70;93.40
20288;DHT22;10303;51.960;8.372;2023-07-20T10:21:57;25.90;98.00
20288;DHT22;10303;51.960;8.372;2023-07-20T10:24:28;26.00;94.40
20288;DHT22;10303;51.960;8.372;2023-07-20T10:26:55;26.10;93.60
20288;DHT22;10303;51.960;8.372;2023-07-20T10:29:22;26.20;92.60
20288;DHT22;10303;51.960;8.372;2023-07-20T10:31:50;26.20;93.00
20288;DHT22;10303;51.960;8.372;2023-07-20T10:34:16;26.30;93.20
20288;DHT22;10303;51.960;8.372;2023-07-20T10:36:46;26.30;92.20
20288;DHT22;10303;51.960;8.372;2023-07-20T10:39:23;26.40;93.20
20288;DHT22;10303;51.960;8.372;2023-07-20T10:42:03;26.60;92.90
20288;DHT22;10303;51.960;8.372;2023-07-20T10:44:33;26.60;93.10
20288;DHT22;10303;51.960;8.372;2023-07-20T10:47:06;26.80;92.30
20288;DHT22;10303;51.960;8.372;2023-07-20T10:49:35;26.80;89.80
20288;DHT22;10303;51.960;8.372;2023-07-20T10:52:05;26.80;87.90
20288;DHT22;10303;51.960;8.372;2023-07-20T10:54:35;26.80;88.10
20288;DHT22;10303;51.960;8.372;2023-07-20T10:57:28;26.80;89.80
20288;DHT22;10303;51.960;8.372;2023-07-20T11:00:10;26.90;88.20
20288;DHT22;10303;51.960;8.372;2023-07-20T11:02:48;27.00;89.20
20288;DHT22;10303;51.960;8.372;2023-07-20T11:05:34;27.10;89.70
20288;DHT22;10303;51.960;8.372;2023-07-20T11:08:08;27.30;87.30
20288;DHT22;10303;51.960;8.372;2023-07-20T11:10:36;27.40;86.40
20288;DHT22;10303;51.960;8.372;2023-07-20T11:15:46;27.40;87.10
20288;DHT22;10303;51.960;8.372;2023-07-20T11:18:18;27.50;85.70
20288;DHT22;10303;51.960;8.372;2023-07-20T11:20:50;27.50;83.90
20288;DHT22;10303;51.960;8.372;2023-07-20T11:23:16;27.50;80.30
20288;DHT22;10303;51.960;8.372;2023-07-20T11:25:42;27.50;83.50
20288;DHT22;10303;51.960;8.372;2023-07-20T11:28:09;27.40;78.40
20288;DHT22;10303;51.960;8.372;2023-07-20T11:30:38;27.30;78.00
20288;DHT22;10303;51.960;8.372;2023-07-20T11:33:05;27.30;83.00
20288;DHT22;10303;51.960;8.372;2023-07-20T11:35:44;27.40;80.20
20288;DHT22;10303;51.960;8.372;2023-07-20T11:38:13;27.40;79.10
20288;DHT22;10303;51.960;8.372;2023-07-20T11:40:46;27.40;79.20
20288;DHT22;10303;51.960;8.372;2023-07-20T11:43:13;27.40;80.50
20288;DHT22;10303;51.960;8.372;2023-07-20T11:45:40;27.40;79.80
20288;DHT22;10303;51.960;8.372;2023-07-20T11:48:06;27.30;79.60
20288;DHT22;10303;51.960;8.372;2023-07-20T11:50:32;27.30;80.00
20288;DHT22;10303;51.960;8.372;2023-07-20T11:53:04;27.30;79.50
20288;DHT22;10303;51.960;8.372;2023-07-20T11:55:31;27.20;78.20
20288;DHT22;10303;51.960;8.372;2023-07-20T11:58:04;27.10;79.50
20288;DHT22;10303;51.960;8.372;2023-07-20T12:00:33;27.10;78.90
20288;DHT22;10303;51.960;8.372;2023-07-20T12:03:00;27.00;79.80
20288;DHT22;10303;51.960;8.372;2023-07-20T12:05:26;27.10;79.60
20288;DHT22;10303;51.960;8.372;2023-07-20T12:07:54;27.10;81.80
20288;DHT22;10303;51.960;8.372;2023-07-20T12:10:27;27.20;80.80
20288;DHT22;10303;51.960;8.372;2023-07-20T12:12:54;27.40;80.00
20288;DHT22;10303;51.960;8.372;2023-07-20T12:15:26;27.50;83.00
20288;DHT22;10303;51.960;8.372;2023-07-20T12:17:57;27.70;82.30
20288;DHT22;10303;51.960;8.372;2023-07-20T12:20:35;27.80;78.80
20288;DHT22;10303;51.960;8.372;2023-07-20T12:23:09;28.00;75.20
20288;DHT22;10303;51.960;8.372;2023-07-20T12:25:38;28.00;76.40
20288;DHT22;10303;51.960;8.372;2023-07-20T12:28:15;28.10;75.20
20288;DHT22;10303;51.960;8.372;2023-07-20T12:30:44;28.20;74.90
20288;DHT22;10303;51.960;8.372;2023-07-20T12:33:10;28.30;76.60
20288;DHT22;10303;51.960;8.372;2023-07-20T12:35:39;28.30;74.50
20288;DHT22;10303;51.960;8.372;2023-07-20T12:38:06;28.30;73.10
20288;DHT22;10303;51.960;8.372;2023-07-20T12:40:33;28.40;74.50
20288;DHT22;10303;51.960;8.372;2023-07-20T12:42:59;28.30;73.40
20288;DHT22;10303;51.960;8.372;2023-07-20T12:45:25;28.30;72.50
20288;DHT22;10303;51.960;8.372;2023-07-20T12:47:51;28.30;72.40
20288;DHT22;10303;51.960;8.372;2023-07-20T12:50:18;28.20;71.60
20288;DHT22;10303;51.960;8.372;2023-07-20T12:52:44;28.10;71.00
20288;DHT22;10303;51.960;8.372;2023-07-20T12:55:10;28.00;70.70
20288;DHT22;10303;51.960;8.372;2023-07-20T12:57:36;27.90;72.50
20288;DHT22;10303;51.960;8.372;2023-07-20T13:00:04;27.80;72.10
20288;DHT22;10303;51.960;8.372;2023-07-20T13:02:33;27.80;71.10
20288;DHT22;10303;51.960;8.372;2023-07-20T13:04:59;27.80;72.10
20288;DHT22;10303;51.960;8.372;2023-07-20T13:07:33;27.80;70.10
20288;DHT22;10303;51.960;8.372;2023-07-20T13:10:00;27.80;70.50
20288;DHT22;10303;51.960;8.372;2023-07-20T13:12:28;27.80;70.30
20288;DHT22;10303;51.960;8.372;2023-07-20T13:14:55;27.80;70.00
20288;DHT22;10303;51.960;8.372;2023-07-20T13:17:22;27.70;70.40
20288;DHT22;10303;51.960;8.372;2023-07-20T13:19:48;27.60;72.40
20288;DHT22;10303;51.960;8.372;2023-07-20T13:22:15;27.60;72.00
20288;DHT22;10303;51.960;8.372;2023-07-20T13:24:41;27.60;72.60
20288;DHT22;10303;51.960;8.372;2023-07-20T13:27:09;27.60;72.40
20288;DHT22;10303;51.960;8.372;2023-07-20T13:29:35;27.60;72.30
20288;DHT22;10303;51.960;8.372;2023-07-20T13:32:02;27.60;70.30
20288;DHT22;10303;51.960;8.372;2023-07-20T13:34:30;27.60;71.00
20288;DHT22;10303;51.960;8.372;2023-07-20T13:36:57;27.60;71.50
20288;DHT22;10303;51.960;8.372;2023-07-20T13:39:23;27.50;69.60
20288;DHT22;10303;51.960;8.372;2023-07-20T13:41:50;27.50;69.50
20288;DHT22;10303;51.960;8.372;2023-07-20T13:44:15;27.60;71.10
20288;DHT22;10303;51.960;8.372;2023-07-20T13:46:42;27.60;71.20
20288;DHT22;10303;51.960;8.372;2023-07-20T13:49:07;27.60;73.50
20288;DHT22;10303;51.960;8.372;2023-07-20T13:51:34;27.70;73.70
20288;DHT22;10303;51.960;8.372;2023-07-20T13:54:00;27.80;71.80
20288;DHT22;10303;51.960;8.372;2023-07-20T13:56:27;27.70;63.20
20288;DHT22;10303;51.960;8.372;2023-07-20T13:58:53;27.70;65.70
20288;DHT22;10303;51.960;8.372;2023-07-20T14:01:18;27.80;66.90
20288;DHT22;10303;51.960;8.372;2023-07-20T14:03:44;27.70;62.60
20288;DHT22;10303;51.960;8.372;2023-07-20T14:06:10;27.60;64.70
20288;DHT22;10303;51.960;8.372;2023-07-20T14:08:38;27.60;65.00
20288;DHT22;10303;51.960;8.372;2023-07-20T14:11:05;27.60;66.60
20288;DHT22;10303;51.960;8.372;2023-07-20T14:13:32;27.60;65.60
20288;DHT22;10303;51.960;8.372;2023-07-20T14:15:58;27.60;65.50
20288;DHT22;10303;51.960;8.372;2023-07-20T14:18:24;27.50;65.70
20288;DHT22;10303;51.960;8.372;2023-07-20T14:20:50;27.50;66.90
20288;DHT22;10303;51.960;8.372;2023-07-20T14:23:16;27.40;65.70
20288;DHT22;10303;51.960;8.372;2023-07-20T14:25:42;27.30;66.70
20288;DHT22;10303;51.960;8.372;2023-07-20T14:28:08;27.20;65.70
20288;DHT22;10303;51.960;8.372;2023-07-20T14:30:33;27.10;66.30
20288;DHT22;10303;51.960;8.372;2023-07-20T14:32:59;27.10;67.10
20288;DHT22;10303;51.960;8.372;2023-07-20T14:35:26;27.00;65.90
20288;DHT22;10303;51.960;8.372;2023-07-20T14:37:52;26.90;65.90
20288;DHT22;10303;51.960;8.372;2023-07-20T14:40:18;26.70;66.20
20288;DHT22;10303;51.960;8.372;2023-07-20T14:42:44;26.60;68.20
20288;DHT22;10303;51.960;8.372;2023-07-20T14:45:10;26.50;69.40
20288;DHT22;10303;51.960;8.372;2023-07-20T14:47:36;26.50;71.30
20288;DHT22;10303;51.960;8.372;2023-07-20T14:50:02;26.20;71.10
20288;DHT22;10303;51.960;8.372;2023-07-20T14:52:28;26.20;71.80
20288;DHT22;10303;51.960;8.372;2023-07-20T14:54:54;26.20;72.30
20288;DHT22;10303;51.960;8.372;2023-07-20T14:57:21;26.20;72.50
20288;DHT22;10303;51.960;8.372;2023-07-20T14:59:49;26.20;73.10
20288;DHT22;10303;51.960;8.372;2023-07-20T15:02:15;26.10;73.80
20288;DHT22;10303;51.960;8.372;2023-07-20T15:04:49;26.20;74.40
20288;DHT22;10303;51.960;8.372;2023-07-20T15:07:20;26.20;74.50
20288;DHT22;10303;51.960;8.372;2023-07-20T15:09:49;26.10;74.90
20288;DHT22;10303;51.960;8.372;2023-07-20T15:12:16;26.20;73.90
20288;DHT22;10303;51.960;8.372;2023-07-20T15:14:42;26.10;72.80
20288;DHT22;10303;51.960;8.372;2023-07-20T15:17:12;26.10;72.80
20288;DHT22;10303;51.960;8.372;2023-07-20T15:19:38;26.10;73.30
20288;DHT22;10303;51.960;8.372;2023-07-20T15:22:04;26.10;74.70
20288;DHT22;10303;51.960;8.372;2023-07-20T15:24:32;26.10;75.20
20288;DHT22;10303;51.960;8.372;2023-07-20T15:26:58;26.00;73.80
20288;DHT22;10303;51.960;8.372;2023-07-20T15:29:25;26.00;72.60
20288;DHT22;10303;51.960;8.372;2023-07-20T15:31:51;25.90;73.30
20288;DHT22;10303;51.960;8.372;2023-07-20T15:34:17;26.00;73.30
20288;DHT22;10303;51.960;8.372;2023-07-20T15:36:43;26.00;73.40
20288;DHT22;10303;51.960;8.372;2023-07-20T15:39:09;26.10;73.60
20288;DHT22;10303;51.960;8.372;2023-07-20T15:41:35;26.00;73.40
20288;DHT22;10303;51.960;8.372;2023-07-20T15:44:01;26.00;74.00